createdAt,value
2022-12-08T00:01:42.091Z,2.89
2022-12-08T00:04:10.834Z,2.92
2022-12-08T00:07:00.791Z,2.92
2022-12-08T00:09:37.908Z,3.02
2022-12-08T00:12:09.350Z,3.02
2022-12-08T00:14:39.182Z,3.02
2022-12-08T00:17:10.171Z,3.06
2022-12-08T00:19:39.085Z,3.09
2022-12-08T00:22:09.715Z,3.03
2022-12-08T00:24:39.712Z,3.05
2022-12-08T00:27:09.843Z,3.03
2022-12-08T00:29:38.396Z,3.05
2022-12-08T00:32:07.611Z,3.03
2022-12-08T00:34:36.660Z,2.92
2022-12-08T00:37:04.576Z,2.94
2022-12-08T00:39:35.283Z,2.89
2022-12-08T00:42:15.390Z,2.83
2022-12-08T00:44:46.285Z,2.84
2022-12-08T00:47:16.363Z,2.80
2022-12-08T00:49:47.526Z,2.80
2022-12-08T00:52:15.876Z,2.87
2022-12-08T00:54:45.264Z,2.85
2022-12-08T00:57:14.131Z,2.85
2022-12-08T00:59:42.012Z,2.89
2022-12-08T01:02:10.353Z,2.89
2022-12-08T01:04:40.151Z,2.91
2022-12-08T01:07:08.105Z,2.92
2022-12-08T01:09:36.599Z,3.02
2022-12-08T01:12:07.962Z,3.01
2022-12-08T01:14:36.043Z,2.98
2022-12-08T01:17:06.101Z,2.96
2022-12-08T01:19:34.059Z,2.92
2022-12-08T01:22:02.493Z,2.98
2022-12-08T01:24:31.041Z,2.96
2022-12-08T01:26:59.459Z,2.92
2022-12-08T01:29:29.086Z,2.95
2022-12-08T01:31:57.952Z,2.94
2022-12-08T01:34:25.950Z,2.98
2022-12-08T01:36:54.316Z,2.94
2022-12-08T01:39:22.281Z,3.01
2022-12-08T01:41:50.220Z,3.01
2022-12-08T01:44:59.270Z,2.95
2022-12-08T01:47:34.479Z,2.95
2022-12-08T01:50:04.445Z,2.96
2022-12-08T01:52:37.616Z,3.02
2022-12-08T01:55:10.637Z,3.05
2022-12-08T01:57:44.058Z,3.08
2022-12-08T02:00:17.325Z,3.06
2022-12-08T02:02:55.289Z,3.08
2022-12-08T02:05:27.374Z,3.05
2022-12-08T02:07:56.879Z,3.01
2022-12-08T02:10:26.435Z,3.03
2022-12-08T02:12:57.409Z,3.10
2022-12-08T02:15:33.403Z,3.06
2022-12-08T02:18:18.810Z,3.12
2022-12-08T02:20:57.264Z,3.05
2022-12-08T02:23:36.197Z,2.99
2022-12-08T02:26:34.139Z,3.06
2022-12-08T02:29:26.405Z,2.99
2022-12-08T02:32:11.370Z,2.94
2022-12-08T02:34:47.582Z,2.96
2022-12-08T02:37:22.001Z,3.03
2022-12-08T02:39:54.577Z,2.98
2022-12-08T02:42:29.075Z,3.01
2022-12-08T02:45:03.774Z,2.99
2022-12-08T02:47:34.247Z,3.01
2022-12-08T02:50:04.012Z,3.01
2022-12-08T02:52:53.694Z,3.02
2022-12-08T02:55:28.763Z,3.01
2022-12-08T02:58:24.254Z,3.01
2022-12-08T03:01:12.724Z,3.01
2022-12-08T03:03:48.863Z,2.98
2022-12-08T03:06:29.907Z,3.01
2022-12-08T03:09:04.314Z,2.96
2022-12-08T03:11:41.066Z,2.98
2022-12-08T03:14:13.839Z,2.95
2022-12-08T03:16:44.728Z,2.99
2022-12-08T03:19:20.423Z,2.91
2022-12-08T03:21:52.437Z,2.94
2022-12-08T03:24:24.505Z,2.91
2022-12-08T03:26:58.591Z,2.91
2022-12-08T03:29:27.956Z,2.87
2022-12-08T03:31:59.259Z,2.81
2022-12-08T03:34:31.282Z,2.84
2022-12-08T03:37:01.847Z,2.77
2022-12-08T03:39:31.769Z,2.80
2022-12-08T03:41:59.656Z,2.84
2022-12-08T03:44:28.043Z,2.84
2022-12-08T03:46:56.376Z,2.81
2022-12-08T03:49:24.328Z,2.81
2022-12-08T03:51:52.890Z,2.77
2022-12-08T03:54:22.202Z,2.78
2022-12-08T03:56:50.200Z,2.80
2022-12-08T03:59:19.063Z,2.83
2022-12-08T04:01:47.000Z,2.87
2022-12-08T04:04:15.450Z,2.81
2022-12-08T04:06:43.822Z,2.83
2022-12-08T04:09:11.841Z,2.88
2022-12-08T04:11:41.817Z,2.84
2022-12-08T04:14:10.389Z,2.85
2022-12-08T04:16:38.416Z,2.84
2022-12-08T04:19:07.463Z,2.88
2022-12-08T04:21:35.430Z,2.84
2022-12-08T04:24:04.303Z,2.89
2022-12-08T04:26:32.200Z,2.91
2022-12-08T04:29:01.999Z,2.96
2022-12-08T04:31:30.398Z,2.92
2022-12-08T04:33:58.476Z,2.96
2022-12-08T04:36:26.875Z,2.96
2022-12-08T04:38:55.105Z,2.98
2022-12-08T04:41:23.019Z,2.99
2022-12-08T04:43:52.121Z,2.98
2022-12-08T04:46:21.450Z,2.99
2022-12-08T04:48:50.322Z,2.94
2022-12-08T04:51:19.613Z,2.98
2022-12-08T04:53:48.803Z,2.98
2022-12-08T04:56:18.844Z,3.02
2022-12-08T04:58:47.689Z,3.02
2022-12-08T05:01:16.644Z,3.03
2022-12-08T05:03:45.972Z,3.08
2022-12-08T05:06:15.091Z,3.09
2022-12-08T05:08:43.885Z,3.08
2022-12-08T05:11:13.467Z,3.09
2022-12-08T05:13:41.463Z,3.03
2022-12-08T05:16:12.863Z,3.03
2022-12-08T05:18:42.024Z,2.98
2022-12-08T05:21:11.830Z,2.98
2022-12-08T05:23:39.856Z,3.02
2022-12-08T05:26:08.031Z,2.98
2022-12-08T05:28:41.966Z,2.96
2022-12-08T05:31:11.257Z,2.89
2022-12-08T05:33:39.657Z,2.94
2022-12-08T05:36:08.939Z,2.91
2022-12-08T05:38:38.214Z,2.84
2022-12-08T05:41:07.387Z,2.80
2022-12-08T05:43:35.955Z,2.83
2022-12-08T05:46:04.264Z,2.80
2022-12-08T05:48:32.385Z,2.73
2022-12-08T05:51:01.421Z,2.70
2022-12-08T05:53:29.618Z,2.61
2022-12-08T05:55:59.857Z,2.61
2022-12-08T05:58:27.829Z,2.60
2022-12-08T06:00:57.112Z,2.60
2022-12-08T06:03:25.073Z,2.64
2022-12-08T06:05:53.525Z,2.64
2022-12-08T06:08:22.183Z,2.62
2022-12-08T06:10:50.358Z,2.56
2022-12-08T06:13:20.217Z,2.60
2022-12-08T06:15:48.238Z,2.57
2022-12-08T06:18:16.129Z,2.64
2022-12-08T06:20:45.923Z,2.64
2022-12-08T06:23:13.805Z,2.68
2022-12-08T06:25:42.670Z,2.74
2022-12-08T06:28:10.617Z,2.77
2022-12-08T06:30:40.760Z,2.81
2022-12-08T06:33:08.680Z,2.80
2022-12-08T06:35:38.064Z,2.78
2022-12-08T06:38:06.409Z,2.83
2022-12-08T06:40:34.400Z,2.84
2022-12-08T06:43:02.742Z,2.89
2022-12-08T06:45:30.780Z,2.91
2022-12-08T06:48:00.110Z,2.96
2022-12-08T06:50:29.105Z,3.05
2022-12-08T06:53:04.823Z,3.02
2022-12-08T06:55:58.698Z,3.02
2022-12-08T06:58:24.535Z,2.94
2022-12-08T07:00:53.016Z,2.92
2022-12-08T07:03:22.404Z,2.91
2022-12-08T07:05:50.331Z,2.96
2022-12-08T07:08:19.279Z,2.98
2022-12-08T07:10:47.730Z,2.92
2022-12-08T07:13:16.223Z,2.92
2022-12-08T07:15:44.189Z,2.95
2022-12-08T07:18:13.127Z,2.94
2022-12-08T07:20:42.432Z,3.01
2022-12-08T07:23:10.847Z,2.99
2022-12-08T07:25:39.231Z,2.95
2022-12-08T07:28:11.353Z,2.92
2022-12-08T07:30:40.845Z,2.89
2022-12-08T07:33:08.783Z,2.95
2022-12-08T07:35:37.735Z,2.99
2022-12-08T07:38:07.471Z,2.98
2022-12-08T07:40:35.776Z,2.96
2022-12-08T07:43:04.160Z,2.95
2022-12-08T07:45:32.181Z,2.94
2022-12-08T07:48:00.350Z,2.92
2022-12-08T07:50:29.450Z,2.91
2022-12-08T07:52:57.392Z,2.94
2022-12-08T07:55:27.430Z,2.92
2022-12-08T07:57:55.204Z,2.98
2022-12-08T08:00:23.239Z,2.95
2022-12-08T08:02:52.415Z,2.98
2022-12-08T08:05:20.722Z,3.01
2022-12-08T08:07:50.272Z,2.99
2022-12-08T08:10:24.514Z,2.95
2022-12-08T08:12:54.739Z,2.98
2022-12-08T08:15:22.707Z,3.02
2022-12-08T08:17:52.454Z,3.01
2022-12-08T08:20:21.604Z,3.05
2022-12-08T08:22:50.736Z,2.96
2022-12-08T08:25:20.203Z,2.98
2022-12-08T08:27:49.068Z,3.03
2022-12-08T08:30:20.965Z,3.08
2022-12-08T08:32:51.066Z,3.08
2022-12-08T08:35:25.281Z,3.03
2022-12-08T08:37:54.141Z,3.06
2022-12-08T08:40:22.297Z,3.08
2022-12-08T08:42:50.747Z,3.01
2022-12-08T08:45:20.020Z,3.08
2022-12-08T08:47:48.049Z,3.03
2022-12-08T08:50:16.029Z,3.06
2022-12-08T08:52:44.885Z,3.08
2022-12-08T08:55:12.815Z,3.03
2022-12-08T08:57:41.746Z,3.09
2022-12-08T09:00:11.665Z,3.13
2022-12-08T09:02:40.808Z,3.09
2022-12-08T09:05:10.092Z,3.13
2022-12-08T09:07:38.166Z,3.15
2022-12-08T09:10:07.735Z,3.08
2022-12-08T09:12:36.956Z,3.03
2022-12-08T09:15:05.545Z,3.01
2022-12-08T09:17:34.423Z,3.08
2022-12-08T09:20:04.021Z,3.29
2022-12-08T09:22:32.675Z,3.27
2022-12-08T09:25:00.701Z,3.23
2022-12-08T09:27:29.165Z,3.15
2022-12-08T09:29:57.143Z,3.16
2022-12-08T09:32:27.156Z,3.24
2022-12-08T09:34:55.328Z,3.23
2022-12-08T09:37:25.111Z,3.26
2022-12-08T09:39:53.742Z,3.24
2022-12-08T09:42:35.968Z,3.23
2022-12-08T09:45:07.117Z,3.29
2022-12-08T09:47:40.193Z,3.20
2022-12-08T09:50:15.364Z,3.12
2022-12-08T09:52:50.426Z,3.15
2022-12-08T09:55:23.953Z,3.20
2022-12-08T09:58:01.929Z,3.19
2022-12-08T10:00:30.841Z,3.31
2022-12-08T10:03:00.004Z,3.34
2022-12-08T10:05:30.500Z,3.33
2022-12-08T10:08:08.671Z,3.33
2022-12-08T10:10:41.044Z,3.34
2022-12-08T10:13:20.589Z,3.30
2022-12-08T10:15:54.586Z,3.30
2022-12-08T10:18:28.233Z,3.36
2022-12-08T10:21:01.307Z,3.30
2022-12-08T10:23:35.932Z,3.29
2022-12-08T10:26:07.725Z,3.33
2022-12-08T10:28:41.400Z,3.38
2022-12-08T10:31:17.945Z,3.46
2022-12-08T10:33:48.467Z,3.60
2022-12-08T10:36:16.492Z,3.53
2022-12-08T10:38:46.287Z,3.54
2022-12-08T10:41:18.482Z,3.64
2022-12-08T10:43:49.879Z,3.61
2022-12-08T10:46:21.214Z,3.70
2022-12-08T10:48:55.692Z,3.64
2022-12-08T10:51:26.395Z,3.64
2022-12-08T10:53:56.969Z,3.58
2022-12-08T10:56:27.562Z,3.70
2022-12-08T10:59:17.578Z,3.68
2022-12-08T11:01:48.597Z,3.86
2022-12-08T11:04:19.999Z,3.90
2022-12-08T11:06:49.576Z,3.88
2022-12-08T11:09:32.545Z,3.83
2022-12-08T11:12:01.744Z,3.99
2022-12-08T11:14:32.579Z,4.11
2022-12-08T11:17:06.937Z,4.09
2022-12-08T11:19:39.311Z,4.16
2022-12-08T11:22:22.500Z,4.21
2022-12-08T11:25:01.824Z,4.17
2022-12-08T11:27:30.685Z,4.13
2022-12-08T11:29:58.575Z,4.13
2022-12-08T11:32:27.044Z,4.17
2022-12-08T11:35:00.565Z,4.11
2022-12-08T11:37:35.219Z,4.17
2022-12-08T11:40:09.190Z,4.14
2022-12-08T11:42:50.263Z,4.06
2022-12-08T11:45:26.003Z,4.06
2022-12-08T11:48:04.861Z,4.29
2022-12-08T11:50:39.973Z,4.18
2022-12-08T11:53:16.940Z,4.13
2022-12-08T11:55:50.419Z,4.07
2022-12-08T11:58:23.023Z,4.17
2022-12-08T12:00:51.419Z,4.29
2022-12-08T12:03:30.120Z,4.37
2022-12-08T12:06:54.268Z,4.43
2022-12-08T12:09:37.000Z,4.40
2022-12-08T12:12:14.302Z,4.37
2022-12-08T12:15:19.877Z,4.38
2022-12-08T12:17:51.925Z,4.26
2022-12-08T12:20:28.391Z,4.17
2022-12-08T12:23:01.740Z,4.43
2022-12-08T12:25:31.162Z,4.43
2022-12-08T12:28:04.297Z,4.51
2022-12-08T12:30:52.600Z,4.41
2022-12-08T12:33:21.628Z,4.38
2022-12-08T12:35:49.866Z,4.41
2022-12-08T12:38:42.322Z,4.26
2022-12-08T12:41:11.756Z,4.11
2022-12-08T12:43:42.162Z,4.02
2022-12-08T12:46:54.995Z,4.03
2022-12-08T12:49:53.455Z,3.92
2022-12-08T12:52:44.541Z,3.86
2022-12-08T12:55:52.920Z,3.90
2022-12-08T12:58:34.589Z,3.90
2022-12-08T13:01:36.639Z,3.86
2022-12-08T13:04:08.872Z,3.72
2022-12-08T13:06:42.582Z,3.78
2022-12-08T13:09:22.886Z,3.77
2022-12-08T13:11:54.156Z,3.78
2022-12-08T13:14:38.149Z,3.81
2022-12-08T13:17:13.850Z,3.68
2022-12-08T13:19:48.848Z,3.74
2022-12-08T13:22:50.571Z,3.75
2022-12-08T13:25:51.221Z,3.70
2022-12-08T13:28:26.809Z,3.75
2022-12-08T13:30:56.368Z,3.88
2022-12-08T13:33:28.536Z,3.98
2022-12-08T13:36:23.320Z,3.77
2022-12-08T13:38:57.593Z,3.81
2022-12-08T13:41:34.185Z,3.79
2022-12-08T13:58:35.092Z,3.71
2022-12-08T14:01:07.989Z,3.58
2022-12-08T14:04:04.710Z,3.61
2022-12-08T14:06:37.941Z,3.61
2022-12-08T14:09:12.983Z,3.57
2022-12-08T14:11:44.472Z,3.57
2022-12-08T14:14:32.693Z,3.60
2022-12-08T14:17:08.403Z,3.60
2022-12-08T14:19:36.582Z,3.57
2022-12-08T14:22:12.569Z,3.47
2022-12-08T14:24:46.290Z,3.34
2022-12-08T14:27:19.013Z,3.36
2022-12-08T14:29:48.491Z,3.27
2022-12-08T14:32:26.460Z,3.23
2022-12-08T14:34:57.723Z,3.13
2022-12-08T14:37:27.929Z,3.15
2022-12-08T14:40:04.321Z,3.09
2022-12-08T14:42:32.600Z,3.05
2022-12-08T14:45:04.945Z,3.05
2022-12-08T14:47:34.527Z,3.03
2022-12-08T14:50:03.707Z,2.98
2022-12-08T14:52:33.164Z,2.94
2022-12-08T14:55:02.548Z,2.92
2022-12-08T14:57:36.753Z,2.95
2022-12-08T15:00:12.242Z,2.91
2022-12-08T15:02:47.344Z,2.87
2022-12-08T15:05:20.147Z,2.83
2022-12-08T15:07:51.863Z,2.83
2022-12-08T15:10:25.176Z,2.83
2022-12-08T15:13:03.277Z,2.80
2022-12-08T15:15:32.970Z,2.78
2022-12-08T15:18:17.213Z,2.77
2022-12-08T15:20:47.703Z,2.75
2022-12-08T15:23:23.025Z,2.75
2022-12-08T15:25:52.766Z,2.74
2022-12-08T15:28:26.696Z,2.71
2022-12-08T15:30:59.094Z,2.70
2022-12-08T15:33:27.891Z,2.71
2022-12-08T15:35:55.831Z,2.65
2022-12-08T15:38:25.505Z,2.67
2022-12-08T15:40:55.834Z,2.65
2022-12-08T15:43:24.174Z,2.65
2022-12-08T15:45:59.374Z,2.65
2022-12-08T15:48:30.220Z,2.64
2022-12-08T15:50:59.025Z,2.64
2022-12-08T15:53:28.273Z,2.64
2022-12-08T15:56:26.325Z,2.58
2022-12-08T15:58:56.956Z,2.62
2022-12-08T16:01:26.641Z,2.64
2022-12-08T16:04:47.331Z,2.62
2022-12-08T16:09:36.187Z,2.61
2022-12-08T16:12:25.309Z,2.62
2022-12-08T16:17:42.988Z,2.67
2022-12-08T16:20:14.922Z,2.64
2022-12-08T16:23:13.047Z,2.67
2022-12-08T16:25:52.841Z,2.67
2022-12-08T16:28:52.745Z,2.68
2022-12-08T16:31:15.076Z,2.70
2022-12-08T16:33:44.679Z,2.71
2022-12-08T16:36:13.079Z,2.74
2022-12-08T16:38:41.067Z,2.83
2022-12-08T16:41:32.790Z,2.83
2022-12-08T16:44:04.462Z,2.95
2022-12-08T16:46:33.306Z,2.96
2022-12-08T16:49:01.235Z,2.92
2022-12-08T16:51:30.188Z,3.12
2022-12-08T16:53:58.784Z,3.15
2022-12-08T16:56:32.632Z,3.20
2022-12-08T16:59:04.057Z,3.16
2022-12-08T17:01:31.957Z,2.99
2022-12-08T17:04:29.731Z,3.05
2022-12-08T17:06:52.798Z,3.03
2022-12-08T17:09:21.704Z,3.12
2022-12-08T17:11:49.685Z,3.06
2022-12-08T17:14:19.548Z,2.89
2022-12-08T17:16:48.030Z,2.92
2022-12-08T17:19:17.282Z,2.85
2022-12-08T17:21:45.517Z,2.88
2022-12-08T17:24:18.550Z,2.84
2022-12-08T17:26:52.151Z,2.78
2022-12-08T17:29:21.523Z,2.73
2022-12-08T17:31:49.631Z,2.67
2022-12-08T17:34:18.845Z,2.67
2022-12-08T17:36:47.274Z,2.70
2022-12-08T17:39:18.575Z,2.70
2022-12-08T17:41:48.380Z,2.67
2022-12-08T17:44:18.238Z,2.71
2022-12-08T17:46:53.050Z,2.87
2022-12-08T17:49:23.463Z,2.85
2022-12-08T17:51:55.178Z,2.87
2022-12-08T17:54:23.755Z,2.96
2022-12-08T17:56:52.225Z,2.96
2022-12-08T17:59:20.492Z,2.95
2022-12-08T18:01:50.373Z,2.87
2022-12-08T18:04:18.296Z,2.91
2022-12-08T18:06:46.430Z,2.99
2022-12-08T18:09:15.736Z,3.05
2022-12-08T18:11:46.149Z,3.15
2022-12-08T18:14:16.642Z,3.16
2022-12-08T18:16:47.665Z,3.08
2022-12-08T18:19:18.129Z,3.09
2022-12-08T18:21:46.370Z,3.05
2022-12-08T18:24:18.965Z,3.03
2022-12-08T18:26:48.361Z,3.02
2022-12-08T18:29:16.328Z,3.08
2022-12-08T18:31:46.050Z,3.22
2022-12-08T18:34:14.589Z,3.20
2022-12-08T18:36:44.012Z,3.06
2022-12-08T18:39:22.828Z,3.30
2022-12-08T18:41:50.949Z,3.22
2022-12-08T18:44:19.322Z,3.27
2022-12-08T18:46:48.459Z,3.26
2022-12-08T18:49:18.711Z,3.23
2022-12-08T18:51:48.985Z,3.34
2022-12-08T18:54:16.941Z,3.38
2022-12-08T18:56:45.469Z,3.44
2022-12-08T18:59:14.495Z,3.40
2022-12-08T19:01:42.738Z,3.67
2022-12-08T19:07:01.043Z,3.55
2022-12-08T19:09:29.182Z,3.63
2022-12-08T19:11:58.019Z,3.60
2022-12-08T19:14:28.729Z,3.27
2022-12-08T19:16:57.662Z,3.30
2022-12-08T19:19:26.176Z,3.30
2022-12-08T19:21:54.645Z,3.29
2022-12-08T19:24:24.237Z,3.38
2022-12-08T19:26:53.379Z,3.24
2022-12-08T19:29:21.414Z,3.23
2022-12-08T19:31:49.969Z,3.23
2022-12-08T19:34:18.458Z,3.22
2022-12-08T19:36:46.886Z,3.24
2022-12-08T19:39:35.582Z,3.37
2022-12-08T19:42:22.973Z,3.03
2022-12-08T19:44:55.658Z,3.06
2022-12-08T19:47:25.649Z,3.13
2022-12-08T19:49:54.804Z,3.08
2022-12-08T19:52:23.797Z,3.22
2022-12-08T19:54:51.718Z,3.19
2022-12-08T19:57:21.943Z,3.23
2022-12-08T19:59:54.755Z,3.30
2022-12-08T20:02:24.562Z,3.29
2022-12-08T20:04:53.115Z,3.29
2022-12-08T20:07:21.551Z,3.33
2022-12-08T20:09:49.869Z,3.13
2022-12-08T20:12:18.235Z,2.95
2022-12-08T20:14:47.729Z,3.10
2022-12-08T20:17:16.220Z,3.20
2022-12-08T20:19:44.169Z,3.23
2022-12-08T20:22:12.593Z,3.27
2022-12-08T20:24:40.896Z,3.44
2022-12-08T20:27:09.400Z,3.34
2022-12-08T20:29:37.299Z,3.54
2022-12-08T20:32:07.364Z,3.40
2022-12-08T20:34:36.263Z,3.24
2022-12-08T20:37:04.542Z,3.29
2022-12-08T20:39:33.351Z,3.43
2022-12-08T20:42:01.348Z,3.34
2022-12-08T20:44:30.285Z,3.36
2022-12-08T20:46:58.638Z,3.29
2022-12-08T20:49:34.261Z,3.22
2022-12-08T20:52:03.618Z,3.18
2022-12-08T20:54:31.604Z,3.16
2022-12-08T20:57:00.470Z,3.15
2022-12-08T20:59:29.598Z,3.27
2022-12-08T21:01:58.483Z,2.88
2022-12-08T21:04:28.140Z,2.88
2022-12-08T21:06:57.577Z,3.03
2022-12-08T21:09:25.594Z,3.13
2022-12-08T21:11:54.326Z,3.19
2022-12-08T21:14:22.245Z,3.26
2022-12-08T21:16:51.593Z,3.40
2022-12-08T21:19:19.971Z,3.46
2022-12-08T21:21:51.245Z,3.46
2022-12-08T21:24:19.783Z,3.40
2022-12-08T21:26:48.019Z,3.16
2022-12-08T21:29:16.999Z,3.05
2022-12-08T21:31:45.145Z,3.05
2022-12-08T21:34:13.801Z,3.01
2022-12-08T21:36:42.831Z,2.98
2022-12-08T21:39:13.423Z,2.84
2022-12-08T21:41:59.529Z,2.85
2022-12-08T21:44:29.378Z,2.92
2022-12-08T21:46:58.063Z,2.94
2022-12-08T21:49:26.247Z,2.80
2022-12-08T21:51:55.056Z,2.71
2022-12-08T21:54:25.604Z,2.80
2022-12-08T21:56:53.805Z,2.77
2022-12-08T21:59:21.938Z,2.85
2022-12-08T22:01:50.543Z,2.78
2022-12-08T22:04:21.517Z,2.80
2022-12-08T22:06:50.742Z,2.73
2022-12-08T22:09:19.681Z,2.77
2022-12-08T22:11:49.316Z,2.73
2022-12-08T22:14:18.934Z,2.54
2022-12-08T22:16:47.025Z,2.44
2022-12-08T22:19:15.655Z,2.40
2022-12-08T22:21:44.433Z,2.26
2022-12-08T22:24:12.613Z,2.22
2022-12-08T22:26:41.704Z,2.28
2022-12-08T22:29:11.081Z,2.25
2022-12-08T22:31:39.914Z,2.30
2022-12-08T22:34:07.978Z,2.36
2022-12-08T22:36:36.824Z,2.30
2022-12-08T22:39:05.912Z,2.25
2022-12-08T22:41:34.036Z,2.22
2022-12-08T22:44:02.349Z,2.18
2022-12-08T22:46:31.833Z,2.19
2022-12-08T22:49:00.584Z,2.12
2022-12-08T22:51:28.421Z,2.11
2022-12-08T22:53:56.861Z,2.18
2022-12-08T22:56:25.454Z,2.18
2022-12-08T22:58:53.449Z,2.18
2022-12-08T23:01:24.244Z,2.16
2022-12-08T23:03:54.902Z,2.16
2022-12-08T23:06:23.220Z,2.09
2022-12-08T23:08:52.548Z,2.04
2022-12-08T23:11:22.200Z,1.97
2022-12-08T23:13:50.708Z,1.99
2022-12-08T23:16:19.108Z,1.91
2022-12-08T23:18:48.417Z,1.85
2022-12-08T23:21:20.066Z,1.85
2022-12-08T23:23:49.116Z,1.82
2022-12-08T23:26:19.827Z,1.91
2022-12-08T23:28:49.222Z,1.98
2022-12-08T23:31:17.809Z,1.99
2022-12-08T23:33:46.804Z,2.15
2022-12-08T23:36:18.400Z,2.08
2022-12-08T23:38:46.538Z,2.06
2022-12-08T23:41:16.863Z,2.18
2022-12-08T23:43:46.841Z,2.19
2022-12-08T23:46:17.025Z,2.25
2022-12-08T23:48:48.121Z,2.34
2022-12-08T23:51:18.474Z,2.44
2022-12-08T23:53:47.447Z,2.60
2022-12-08T23:56:18.012Z,2.64
2022-12-08T23:58:46.737Z,2.51
